createdAt,value
2019-05-10T00:01:05.292Z,1008.71
2019-05-10T00:01:55.337Z,1008.6
2019-05-10T00:02:35.291Z,1008.58
2019-05-10T00:04:05.339Z,1008.54
2019-05-10T00:05:05.360Z,1008.56
2019-05-10T00:06:35.403Z,1008.58
2019-05-10T00:08:05.420Z,1008.5
2019-05-10T00:09:45.536Z,1008.61
2019-05-10T00:11:05.579Z,1008.56
2019-05-10T00:12:35.573Z,1008.52
2019-05-10T00:14:05.595Z,1008.5
2019-05-10T00:15:05.674Z,1008.58
2019-05-10T00:16:35.657Z,1008.56
2019-05-10T00:18:05.756Z,1008.59
2019-05-10T00:19:45.814Z,1008.5
2019-05-10T00:21:05.837Z,1008.52
2019-05-10T00:22:35.852Z,1008.56
2019-05-10T00:24:05.931Z,1008.59
2019-05-10T00:25:05.957Z,1008.51
2019-05-10T00:26:35.996Z,1008.54
2019-05-10T00:28:06.036Z,1008.62
2019-05-10T00:29:46.181Z,1008.55
2019-05-10T00:31:06.197Z,1008.57
2019-05-10T00:32:36.210Z,1008.61
2019-05-10T00:34:06.242Z,1008.52
2019-05-10T00:35:36.256Z,1008.61
2019-05-10T00:37:06.295Z,1008.57
2019-05-10T00:38:36.323Z,1008.59
2019-05-10T00:39:36.332Z,1008.52
2019-05-10T00:41:06.384Z,1008.54
2019-05-10T00:42:36.407Z,1008.54
2019-05-10T00:44:06.419Z,1008.63
2019-05-10T00:45:36.464Z,1008.53
2019-05-10T00:47:06.545Z,1008.68
2019-05-10T00:48:36.609Z,1008.61
2019-05-10T00:49:36.555Z,1008.65
2019-05-10T00:51:06.636Z,1008.58
2019-05-10T00:52:36.593Z,1008.59
2019-05-10T00:54:06.619Z,1008.63
2019-05-10T00:55:36.651Z,1008.59
2019-05-10T00:57:06.729Z,1008.52
2019-05-10T00:58:36.743Z,1008.65
2019-05-10T00:59:36.813Z,1008.62
2019-05-10T01:00:36.787Z,1008.66
2019-05-10T01:02:06.830Z,1008.64
2019-05-10T01:03:36.869Z,1008.73
2019-05-10T01:04:36.897Z,1008.68
2019-05-10T01:06:06.912Z,1008.68
2019-05-10T01:07:36.977Z,1008.77
2019-05-10T01:09:06.978Z,1008.65
2019-05-10T01:10:37.059Z,1008.73
2019-05-10T01:12:07.077Z,1008.74
2019-05-10T01:13:37.098Z,1008.71
2019-05-10T01:14:37.130Z,1008.71
2019-05-10T01:16:07.195Z,1008.71
2019-05-10T01:17:37.214Z,1008.75
2019-05-10T01:19:07.319Z,1008.74
2019-05-10T01:20:37.341Z,1008.78
2019-05-10T01:22:07.415Z,1008.75
2019-05-10T01:23:37.435Z,1008.83
2019-05-10T01:24:37.455Z,1008.88
2019-05-10T01:26:07.463Z,1008.74
2019-05-10T01:27:37.502Z,1008.83
2019-05-10T01:29:07.507Z,1008.82
2019-05-10T01:30:37.521Z,1008.84
2019-05-10T01:32:07.542Z,1008.86
2019-05-10T01:33:37.594Z,1008.92
2019-05-10T01:34:37.600Z,1008.92
2019-05-10T01:35:37.621Z,1008.91
2019-05-10T01:37:07.670Z,1008.94
2019-05-10T01:38:37.753Z,1009.02
2019-05-10T01:39:37.707Z,1009.03
2019-05-10T01:41:07.817Z,1009
2019-05-10T01:43:07.848Z,1008.98
2019-05-10T01:44:37.900Z,1009.01
2019-05-10T01:45:17.901Z,1009.09
2019-05-10T01:47:07.916Z,1009.01
2019-05-10T01:49:07.958Z,1009
2019-05-10T01:51:08.025Z,1009.03
2019-05-10T01:53:08.085Z,1008.97
2019-05-10T01:54:38.115Z,1009.09
2019-05-10T01:55:18.149Z,1009.04
2019-05-10T01:57:08.154Z,1009.04
2019-05-10T01:59:08.229Z,1009.05
2019-05-10T01:59:58.274Z,1008.98
2019-05-10T02:01:08.328Z,1008.97
2019-05-10T02:03:08.349Z,1009.09
2019-05-10T02:04:38.365Z,1009.06
2019-05-10T02:05:18.372Z,1009
2019-05-10T02:07:08.403Z,1009.02
2019-05-10T02:07:58.413Z,1009.04
2019-05-10T02:08:28.433Z,1009.06
2019-05-10T02:09:08.417Z,1009.06
2019-05-10T02:09:58.431Z,1008.98
2019-05-10T02:10:38.474Z,1009.06
2019-05-10T02:11:18.495Z,1009.03
2019-05-10T02:13:08.586Z,1009.02
2019-05-10T02:13:58.601Z,1008.99
2019-05-10T02:14:38.656Z,1009.08
2019-05-10T02:15:18.728Z,1008.97
2019-05-10T02:16:38.750Z,1009.03
2019-05-10T02:17:18.769Z,1009.13
2019-05-10T02:18:28.815Z,1009.08
2019-05-10T02:19:08.836Z,1009.07
2019-05-10T02:21:08.830Z,1009.18
2019-05-10T02:23:08.863Z,1009.19
2019-05-10T02:24:38.882Z,1009.11
2019-05-10T02:25:18.909Z,1009.14
2019-05-10T02:27:08.938Z,1009.07
2019-05-10T02:27:58.984Z,1009.09
2019-05-10T02:29:09.017Z,1009.17
2019-05-10T02:31:09.071Z,1009.09
2019-05-10T02:33:09.123Z,1009.13
2019-05-10T02:34:39.154Z,1009.03
2019-05-10T02:35:19.157Z,1009.11
2019-05-10T02:36:39.194Z,1009.11
2019-05-10T02:37:19.231Z,1009.07
2019-05-10T02:39:09.280Z,1009.09
2019-05-10T02:41:09.304Z,1009.14
2019-05-10T02:42:39.366Z,1009.13
2019-05-10T02:43:19.333Z,1009.15
2019-05-10T02:44:49.329Z,1009.2
2019-05-10T02:45:39.355Z,1009.18
2019-05-10T02:46:39.399Z,1009.14
2019-05-10T02:47:39.451Z,1009.16
2019-05-10T02:48:39.504Z,1009.17
2019-05-10T02:49:49.550Z,1009.16
2019-05-10T02:50:39.572Z,1009.18
2019-05-10T02:51:39.597Z,1009.18
2019-05-10T02:52:39.608Z,1009.19
2019-05-10T02:53:39.619Z,1009.14
2019-05-10T02:54:49.630Z,1009.21
2019-05-10T02:55:39.667Z,1009.15
2019-05-10T02:56:39.657Z,1009.14
2019-05-10T02:57:39.674Z,1009.13
2019-05-10T02:58:39.684Z,1009.16
2019-05-10T02:59:49.757Z,1009.14
2019-05-10T03:00:39.731Z,1009.2
2019-05-10T03:01:39.728Z,1009.19
2019-05-10T03:02:39.762Z,1009.12
2019-05-10T03:03:39.766Z,1009.23
2019-05-10T03:04:39.769Z,1009.16
2019-05-10T03:06:09.867Z,1009.18
2019-05-10T03:07:40.007Z,1009.2
2019-05-10T03:09:09.955Z,1009.12
2019-05-10T03:10:39.994Z,1009.2
2019-05-10T03:12:10.063Z,1009.14
2019-05-10T03:13:40.093Z,1009.21
2019-05-10T03:14:40.140Z,1009.16
2019-05-10T03:16:10.119Z,1009.14
2019-05-10T03:17:40.248Z,1009.18
2019-05-10T03:19:20.167Z,1009.17
2019-05-10T03:20:40.187Z,1009.19
2019-05-10T03:22:10.222Z,1009.22
2019-05-10T03:23:40.250Z,1009.23
2019-05-10T03:24:40.276Z,1009.25
2019-05-10T03:25:30.333Z,1009.23
2019-05-10T03:26:10.305Z,1009.25
2019-05-10T03:27:40.343Z,1009.31
2019-05-10T03:29:20.375Z,1009.35
2019-05-10T03:30:00.407Z,1009.25
2019-05-10T03:30:40.392Z,1009.26
2019-05-10T03:32:10.417Z,1009.28
2019-05-10T03:33:00.504Z,1009.25
2019-05-10T03:33:40.432Z,1009.27
2019-05-10T03:34:50.448Z,1009.29
2019-05-10T03:35:30.473Z,1009.27
2019-05-10T03:36:10.469Z,1009.29
2019-05-10T03:37:00.479Z,1009.33
2019-05-10T03:37:40.478Z,1009.32
2019-05-10T03:38:30.546Z,1009.3
2019-05-10T03:39:30.501Z,1009.25
2019-05-10T03:40:10.509Z,1009.32
2019-05-10T03:41:00.523Z,1009.32
2019-05-10T03:41:40.535Z,1009.28
2019-05-10T03:42:30.554Z,1009.34
2019-05-10T03:43:10.546Z,1009.36
2019-05-10T03:44:20.584Z,1009.32
2019-05-10T03:45:00.683Z,1009.33
2019-05-10T03:45:40.716Z,1009.28
2019-05-10T03:46:30.654Z,1009.26
2019-05-10T03:47:10.691Z,1009.34
2019-05-10T03:48:00.752Z,1009.35
2019-05-10T03:48:40.700Z,1009.3
2019-05-10T03:49:50.750Z,1009.41
2019-05-10T03:50:30.751Z,1009.38
2019-05-10T03:51:10.750Z,1009.4
2019-05-10T03:52:00.773Z,1009.4
2019-05-10T03:52:40.910Z,1009.32
2019-05-10T03:53:30.830Z,1009.39
2019-05-10T03:54:30.887Z,1009.39
2019-05-10T03:55:10.876Z,1009.38
2019-05-10T03:56:00.916Z,1009.31
2019-05-10T03:56:40.914Z,1009.39
2019-05-10T03:57:30.947Z,1009.41
2019-05-10T03:58:10.915Z,1009.41
2019-05-10T03:59:20.919Z,1009.41
2019-05-10T04:00:01.033Z,1009.41
2019-05-10T04:00:40.961Z,1009.43
2019-05-10T04:01:31.012Z,1009.44
2019-05-10T04:02:10.977Z,1009.4
2019-05-10T04:03:00.985Z,1009.38
2019-05-10T04:03:40.998Z,1009.44
2019-05-10T04:04:51.052Z,1009.4
2019-05-10T04:05:31.058Z,1009.36
2019-05-10T04:06:11.055Z,1009.44
2019-05-10T04:07:01.062Z,1009.51
2019-05-10T04:07:41.120Z,1009.43
2019-05-10T04:08:31.317Z,1009.46
2019-05-10T04:10:11.290Z,1009.44
2019-05-10T04:11:01.446Z,1009.51
2019-05-10T04:11:41.357Z,1009.41
2019-05-10T04:12:31.403Z,1009.47
2019-05-10T04:13:11.429Z,1009.49
2019-05-10T04:14:21.445Z,1009.54
2019-05-10T04:15:41.462Z,1009.5
2019-05-10T04:16:31.471Z,1009.53
2019-05-10T04:17:11.588Z,1009.53
2019-05-10T04:18:41.596Z,1009.54
2019-05-10T04:19:51.562Z,1009.48
2019-05-10T04:21:11.584Z,1009.51
2019-05-10T04:22:41.677Z,1009.5
2019-05-10T04:25:11.850Z,1009.63
2019-05-10T04:26:41.934Z,1009.63
2019-05-10T04:28:12.026Z,1009.55
2019-05-10T04:29:22.048Z,1009.55
2019-05-10T04:30:42.084Z,1009.55
2019-05-10T04:32:12.094Z,1009.61
2019-05-10T04:33:42.129Z,1009.57
2019-05-10T04:34:42.137Z,1009.64
2019-05-10T04:36:12.787Z,1009.57
2019-05-10T04:37:42.242Z,1009.6
2019-05-10T04:39:42.264Z,1009.61
2019-05-10T04:41:12.307Z,1009.55
2019-05-10T04:42:42.336Z,1009.57
2019-05-10T04:45:12.369Z,1009.49
2019-05-10T04:46:42.413Z,1009.49
2019-05-10T04:48:12.449Z,1009.57
2019-05-10T04:49:22.478Z,1009.5
2019-05-10T04:50:12.475Z,1009.43
2019-05-10T04:51:42.535Z,1009.57
2019-05-10T04:53:12.548Z,1009.54
2019-05-10T04:54:12.577Z,1009.52
2019-05-10T04:55:42.707Z,1009.58
2019-05-10T04:57:13.474Z,1009.64
2019-05-10T04:58:42.629Z,1009.59
2019-05-10T05:00:12.690Z,1009.59
2019-05-10T05:01:42.753Z,1009.56
2019-05-10T05:03:12.773Z,1009.56
2019-05-10T05:04:12.825Z,1009.64
2019-05-10T05:05:42.815Z,1009.58
2019-05-10T05:07:12.830Z,1009.63
2019-05-10T05:08:42.861Z,1009.63
2019-05-10T05:10:12.876Z,1009.68
2019-05-10T05:11:42.929Z,1009.7
2019-05-10T05:13:12.910Z,1009.76
2019-05-10T05:14:12.917Z,1009.74
2019-05-10T05:15:42.960Z,1009.82
2019-05-10T05:17:12.966Z,1009.76
2019-05-10T05:18:43.029Z,1009.73
2019-05-10T05:20:13.053Z,1009.77
2019-05-10T05:21:43.084Z,1009.82
2019-05-10T05:23:13.181Z,1009.83
2019-05-10T05:24:16.794Z,1009.78
2019-05-10T05:27:13.223Z,1009.84
2019-05-10T05:28:43.237Z,1009.92
2019-05-10T05:30:13.247Z,1009.89
2019-05-10T05:31:43.281Z,1009.89
2019-05-10T05:33:13.284Z,1009.89
2019-05-10T05:34:13.319Z,1009.92
2019-05-10T05:35:43.406Z,1010.01
2019-05-10T05:37:13.426Z,1009.96
2019-05-10T05:38:46.859Z,1009.85
2019-05-10T05:40:13.615Z,1009.91
2019-05-10T05:41:48.884Z,1009.88
2019-05-10T05:43:13.646Z,1009.89
2019-05-10T05:44:13.652Z,1009.83
2019-05-10T05:45:43.738Z,1009.83
2019-05-10T05:47:44.778Z,1009.81
2019-05-10T05:49:13.800Z,1009.91
2019-05-10T05:50:13.879Z,1009.84
2019-05-10T05:50:53.837Z,1009.77
2019-05-10T05:52:43.926Z,1009.86
2019-05-10T05:54:14.890Z,1009.82
2019-05-10T05:54:57.352Z,1009.87
2019-05-10T05:56:14.588Z,1009.84
2019-05-10T05:56:53.926Z,1009.85
2019-05-10T05:58:46.714Z,1009.91
2019-05-10T05:59:43.978Z,1009.91
2019-05-10T06:01:44.033Z,1009.93
2019-05-10T06:04:46.113Z,1010.05
2019-05-10T06:06:44.178Z,1010.05
2019-05-10T06:08:22.665Z,1010.06
2019-05-10T06:09:14.224Z,1010.04
2019-05-10T06:09:54.234Z,1010.09
2019-05-10T06:11:14.265Z,1010.07
2019-05-10T06:11:54.319Z,1010.14
2019-05-10T06:13:44.319Z,1010.09
2019-05-10T06:14:49.579Z,1010.12
2019-05-10T06:16:44.822Z,1010.14
2019-05-10T06:19:44.518Z,1010.24
2019-05-10T06:20:38.092Z,1010.18
2019-05-10T06:21:04.568Z,1010.19
2019-05-10T06:21:44.577Z,1010.13
2019-05-10T06:23:14.633Z,1010.18
2019-05-10T06:24:15.788Z,1010.17
2019-05-10T06:24:54.699Z,1010.19
2019-05-10T06:25:39.116Z,1010.17
2019-05-10T06:26:22.678Z,1010.15
2019-05-10T06:26:58.169Z,1010.11
2019-05-10T06:27:35.234Z,1010.12
2019-05-10T06:29:44.767Z,1010.23
2019-05-10T06:31:04.924Z,1010.18
2019-05-10T06:31:44.985Z,1010.23
2019-05-10T06:34:44.935Z,1010.3
2019-05-10T06:36:44.969Z,1010.32
2019-05-10T06:38:14.968Z,1010.28
2019-05-10T06:39:15.027Z,1010.35
2019-05-10T06:39:55.042Z,1010.21
2019-05-10T06:41:16.587Z,1010.3
2019-05-10T06:41:55.878Z,1010.37
2019-05-10T06:44:45.102Z,1010.3
2019-05-10T06:46:45.134Z,1010.35
2019-05-10T06:48:25.725Z,1010.29
2019-05-10T06:49:15.166Z,1010.3
2019-05-10T06:50:15.173Z,1010.28
2019-05-10T06:50:55.186Z,1010.3
2019-05-10T06:52:45.200Z,1010.31
2019-05-10T06:53:55.359Z,1010.35
2019-05-10T06:55:45.297Z,1010.38
2019-05-10T06:57:17.355Z,1010.45
2019-05-10T06:58:15.495Z,1010.37
2019-05-10T07:00:15.474Z,1010.47
2019-05-10T07:01:15.507Z,1010.44
2019-05-10T07:02:19.875Z,1010.41
2019-05-10T07:03:15.559Z,1010.44
2019-05-10T07:05:15.582Z,1010.47
2019-05-10T07:06:15.582Z,1010.56
2019-05-10T07:07:20.272Z,1010.54
2019-05-10T07:08:20.274Z,1010.49
2019-05-10T07:09:25.623Z,1010.48
2019-05-10T07:10:19.248Z,1010.49
2019-05-10T07:11:15.693Z,1010.47
2019-05-10T07:12:45.887Z,1010.46
2019-05-10T07:13:55.878Z,1010.58
2019-05-10T07:15:15.882Z,1010.65
2019-05-10T07:16:45.911Z,1010.66
2019-05-10T07:18:16.646Z,1010.64
2019-05-10T07:19:28.676Z,1010.72
2019-05-10T07:20:45.968Z,1010.76
2019-05-10T07:22:21.527Z,1010.66
2019-05-10T07:24:46.040Z,1010.77
2019-05-10T07:26:17.296Z,1010.73
2019-05-10T07:27:46.075Z,1010.7
2019-05-10T07:28:57.372Z,1010.79
2019-05-10T07:30:16.104Z,1010.72
2019-05-10T07:31:46.190Z,1010.77
2019-05-10T07:33:16.306Z,1010.75
2019-05-10T07:34:26.273Z,1010.78
2019-05-10T07:35:46.308Z,1010.79
2019-05-10T07:37:16.316Z,1010.76
2019-05-10T07:39:46.359Z,1010.82
2019-05-10T07:41:19.299Z,1010.75
2019-05-10T07:42:47.123Z,1010.83
2019-05-10T07:44:00.363Z,1010.78
2019-05-10T07:45:18.598Z,1010.81
2019-05-10T07:46:51.178Z,1010.84
2019-05-10T07:48:16.571Z,1010.8
2019-05-10T07:49:30.037Z,1010.82
2019-05-10T07:50:49.121Z,1010.79
2019-05-10T07:52:16.707Z,1010.92
2019-05-10T07:54:47.748Z,1010.88
2019-05-10T07:56:16.816Z,1010.94
2019-05-10T07:57:46.872Z,1010.95
2019-05-10T07:59:00.075Z,1010.88
2019-05-10T08:00:16.989Z,1010.84
2019-05-10T08:01:07.054Z,1010.92
2019-05-10T08:01:49.088Z,1011
2019-05-10T08:03:23.073Z,1010.94
2019-05-10T08:04:31.783Z,1011
2019-05-10T08:05:54.950Z,1010.94
2019-05-10T08:07:18.525Z,1010.87
2019-05-10T08:09:48.722Z,1010.99
2019-05-10T08:10:48.785Z,1010.98
2019-05-10T08:11:39.037Z,1010.99
2019-05-10T08:12:19.437Z,1010.99
2019-05-10T08:14:49.950Z,1010.92
2019-05-10T08:16:22.634Z,1011
2019-05-10T08:17:48.689Z,1010.98
2019-05-10T08:19:00.877Z,1011.03
2019-05-10T08:20:30.537Z,1011.03
2019-05-10T08:21:48.661Z,1011.04
2019-05-10T08:23:17.872Z,1011.09
2019-05-10T08:24:17.682Z,1011.01
2019-05-10T08:25:47.692Z,1011.08
2019-05-10T08:27:17.712Z,1011.05
2019-05-10T08:29:50.883Z,1011.08
2019-05-10T08:31:17.831Z,1011.01
2019-05-10T08:32:47.831Z,1011.07
2019-05-10T08:33:58.923Z,1011.08
2019-05-10T08:35:18.827Z,1011.09
2019-05-10T08:36:47.958Z,1011.04
2019-05-10T08:38:17.895Z,1011.03
2019-05-10T08:39:17.929Z,1011.09
2019-05-10T08:40:47.934Z,1011.06
2019-05-10T08:42:32.410Z,1011.09
2019-05-10T08:44:51.720Z,1011.04
2019-05-10T08:46:19.306Z,1011.12
2019-05-10T08:47:52.528Z,1011.09
2019-05-10T08:48:58.031Z,1011.16
2019-05-10T08:50:30.616Z,1011.18
2019-05-10T08:51:49.437Z,1011.18
2019-05-10T08:53:18.200Z,1011.18
2019-05-10T08:54:18.221Z,1011.18
2019-05-10T08:55:48.224Z,1011.07
2019-05-10T08:57:18.649Z,1011.14
2019-05-10T08:59:48.283Z,1011.17
2019-05-10T09:01:26.466Z,1011.12
2019-05-10T09:02:48.296Z,1011.19
2019-05-10T09:04:00.748Z,1011.15
2019-05-10T09:05:20.694Z,1011.22
2019-05-10T09:06:53.324Z,1011.22
2019-05-10T09:08:19.809Z,1011.23
2019-05-10T09:09:18.430Z,1011.19
2019-05-10T09:10:48.478Z,1011.2
2019-05-10T09:12:18.496Z,1011.24
2019-05-10T09:14:48.934Z,1011.23
2019-05-10T09:16:18.617Z,1011.11
2019-05-10T09:17:48.696Z,1011.22
2019-05-10T09:18:58.703Z,1011.2
2019-05-10T09:20:21.691Z,1011.16
2019-05-10T09:21:49.436Z,1011.16
2019-05-10T09:23:20.577Z,1011.15
2019-05-10T09:24:18.777Z,1011.15
2019-05-10T09:25:48.803Z,1011.19
2019-05-10T09:27:18.890Z,1011.21
2019-05-10T09:29:48.913Z,1011.24
2019-05-10T09:31:22.534Z,1011.23
2019-05-10T09:32:48.942Z,1011.18
2019-05-10T09:33:59.016Z,1011.22
2019-05-10T09:35:19.084Z,1011.19
2019-05-10T09:36:49.106Z,1011.2
2019-05-10T09:37:39.162Z,1011.2
2019-05-10T09:38:19.122Z,1011.22
2019-05-10T09:39:22.371Z,1011.2
2019-05-10T09:40:09.827Z,1011.16
2019-05-10T09:40:52.604Z,1011.23
2019-05-10T09:41:39.194Z,1011.22
2019-05-10T09:43:09.710Z,1011.2
2019-05-10T09:43:50.464Z,1011.18
2019-05-10T09:44:49.206Z,1011.2
2019-05-10T09:45:39.244Z,1011.23
2019-05-10T09:46:19.226Z,1011.15
2019-05-10T09:47:09.244Z,1011.24
2019-05-10T09:47:49.232Z,1011.28
2019-05-10T09:49:04.707Z,1011.27
2019-05-10T09:49:39.316Z,1011.23
2019-05-10T09:50:19.317Z,1011.17
2019-05-10T09:51:09.363Z,1011.23
2019-05-10T09:51:49.352Z,1011.17
2019-05-10T09:52:39.359Z,1011.23
2019-05-10T09:53:23.272Z,1011.14
2019-05-10T09:54:23.114Z,1011.17
2019-05-10T09:55:14.467Z,1011.22
2019-05-10T09:55:52.135Z,1011.25
2019-05-10T09:56:44.204Z,1011.15
2019-05-10T09:57:19.562Z,1011.25
2019-05-10T09:58:09.643Z,1011.18
2019-05-10T09:59:09.641Z,1011.19
2019-05-10T09:59:49.609Z,1011.18
2019-05-10T10:00:30.225Z,1011.2
2019-05-10T10:02:19.695Z,1011.17
2019-05-10T10:03:12.478Z,1011.13
2019-05-10T10:04:09.720Z,1011.13
2019-05-10T10:05:19.716Z,1011.22
2019-05-10T10:06:11.234Z,1011.16
2019-05-10T10:06:52.571Z,1011.21
2019-05-10T10:07:33.433Z,1011.22
2019-05-10T10:09:00.867Z,1011.18
2019-05-10T10:09:49.844Z,1011.26
2019-05-10T10:10:32.271Z,1011.19
2019-05-10T10:12:19.968Z,1011.17
2019-05-10T10:14:02.100Z,1011.2
2019-05-10T10:15:29.652Z,1011.14
2019-05-10T10:17:20.630Z,1011.12
2019-05-10T10:19:00.239Z,1011.06
2019-05-10T10:20:20.245Z,1011.07
2019-05-10T10:22:20.284Z,1011.08
2019-05-10T10:24:00.584Z,1011.09
2019-05-10T10:25:20.306Z,1011.11
2019-05-10T10:27:20.346Z,1011.15
2019-05-10T10:30:21.481Z,1011.12
2019-05-10T10:31:55.444Z,1011.12
2019-05-10T10:32:34.601Z,1011.06
2019-05-10T10:34:02.848Z,1011.1
2019-05-10T10:34:54.148Z,1011.1
2019-05-10T10:35:30.503Z,1011.1
2019-05-10T10:37:25.665Z,1011.14
2019-05-10T10:40:20.606Z,1011.13
2019-05-10T10:41:52.139Z,1011.09
2019-05-10T10:42:30.629Z,1011.11
2019-05-10T10:43:30.664Z,1011.15
2019-05-10T10:44:50.694Z,1011.19
2019-05-10T10:45:30.693Z,1011.12
2019-05-10T10:47:22.792Z,1011.15
2019-05-10T10:49:00.736Z,1011.07
2019-05-10T10:50:20.815Z,1011.12
2019-05-10T10:52:20.831Z,1011.09
2019-05-10T10:55:20.920Z,1011.1
2019-05-10T10:56:50.990Z,1011.08
2019-05-10T10:57:30.970Z,1011.1
2019-05-10T10:58:30.991Z,1011.04
2019-05-10T10:59:51.019Z,1011.06
2019-05-10T11:00:51.016Z,1011.1
2019-05-10T11:01:45.901Z,1011.07
2019-05-10T11:02:51.809Z,1011.05
2019-05-10T11:03:51.050Z,1011.19
2019-05-10T11:04:31.062Z,1011.15
2019-05-10T11:05:51.080Z,1011.07
2019-05-10T11:06:51.077Z,1011.07
2019-05-10T11:07:32.970Z,1011.11
2019-05-10T11:08:33.139Z,1011
2019-05-10T11:09:53.566Z,1010.99
2019-05-10T11:10:51.207Z,1011.11
2019-05-10T11:11:51.482Z,1011.1
2019-05-10T11:12:51.385Z,1011.1
2019-05-10T11:14:51.299Z,1011.05
2019-05-10T11:15:51.713Z,1010.99
2019-05-10T11:16:52.704Z,1011
2019-05-10T11:17:51.431Z,1010.99
2019-05-10T11:19:51.459Z,1010.95
2019-05-10T11:20:53.818Z,1010.92
2019-05-10T11:21:51.568Z,1011
2019-05-10T11:22:53.322Z,1010.94
2019-05-10T11:25:56.349Z,1010.9
2019-05-10T11:26:51.736Z,1010.88
2019-05-10T11:27:53.678Z,1010.93
2019-05-10T11:29:54.951Z,1011.02
2019-05-10T11:31:21.655Z,1011.08
2019-05-10T11:32:51.719Z,1011.06
2019-05-10T11:34:02.133Z,1011.07
2019-05-10T11:35:28.289Z,1011.14
2019-05-10T11:36:52.159Z,1011.12
2019-05-10T11:39:26.338Z,1011.07
2019-05-10T11:40:52.170Z,1011.07
2019-05-10T11:42:22.248Z,1011.02
2019-05-10T11:43:32.241Z,1011.01
2019-05-10T11:44:54.435Z,1011.06
2019-05-10T11:46:22.269Z,1011
2019-05-10T11:47:54.184Z,1011.04
2019-05-10T11:49:02.308Z,1010.96
2019-05-10T11:50:30.836Z,1010.99
2019-05-10T11:51:54.565Z,1011
2019-05-10T11:54:22.366Z,1010.98
2019-05-10T11:55:52.386Z,1011.02
2019-05-10T11:57:22.468Z,1011.04
2019-05-10T11:58:37.443Z,1011.06
2019-05-10T11:59:52.524Z,1011.07
2019-05-10T12:01:22.524Z,1011.02
2019-05-10T12:03:06.819Z,1011.05
2019-05-10T12:04:05.019Z,1011
2019-05-10T12:05:26.217Z,1011.07
2019-05-10T12:06:52.593Z,1011.05
2019-05-10T12:09:24.456Z,1011.05
2019-05-10T12:10:59.069Z,1011.02
2019-05-10T12:12:25.945Z,1011.1
2019-05-10T12:13:32.829Z,1011.03
2019-05-10T12:14:53.922Z,1011.04
2019-05-10T12:16:22.714Z,1011.09
2019-05-10T12:17:58.846Z,1011.06
2019-05-10T12:19:14.825Z,1011.09
2019-05-10T12:20:38.913Z,1011.06
2019-05-10T12:21:55.866Z,1011.14
2019-05-10T12:24:38.359Z,1011.23
2019-05-10T12:26:38.398Z,1011.13
2019-05-10T12:27:28.699Z,1011.24
2019-05-10T12:28:35.441Z,1011.13
2019-05-10T12:29:59.433Z,1011.15
2019-05-10T12:31:23.448Z,1011.12
2019-05-10T12:32:55.946Z,1011.24
2019-05-10T12:34:08.786Z,1011.22
2019-05-10T12:35:26.339Z,1011.28
2019-05-10T12:36:57.404Z,1011.2
2019-05-10T12:39:23.155Z,1011.23
2019-05-10T12:40:53.161Z,1011.19
2019-05-10T12:42:23.176Z,1011.17
2019-05-10T12:43:33.185Z,1011.18
2019-05-10T12:44:55.838Z,1011.12
2019-05-10T12:46:23.204Z,1011.21
2019-05-10T12:47:53.223Z,1011.19
2019-05-10T12:49:04.852Z,1011.18
2019-05-10T12:50:23.335Z,1011.17
2019-05-10T12:51:53.387Z,1011.2
2019-05-10T12:54:23.978Z,1011.23
2019-05-10T12:55:53.454Z,1011.19
2019-05-10T12:57:23.599Z,1011.21
2019-05-10T12:58:33.619Z,1011.19
2019-05-10T12:59:53.636Z,1011.18
2019-05-10T13:01:25.372Z,1011.27
2019-05-10T13:02:53.713Z,1011.28
2019-05-10T13:03:53.673Z,1011.26
2019-05-10T13:05:30.561Z,1011.24
2019-05-10T13:06:53.711Z,1011.27
2019-05-10T13:09:37.302Z,1011.24
2019-05-10T13:10:53.863Z,1011.28
2019-05-10T13:12:23.903Z,1011.26
2019-05-10T13:13:34.040Z,1011.2
2019-05-10T13:14:53.984Z,1011.23
2019-05-10T13:16:24.001Z,1011.28
2019-05-10T13:17:54.011Z,1011.26
2019-05-10T13:18:54.040Z,1011.29
2019-05-10T13:20:24.090Z,1011.21
2019-05-10T13:21:58.566Z,1011.24
2019-05-10T13:24:24.094Z,1011.12
2019-05-10T13:25:54.146Z,1011.3
2019-05-10T13:27:24.126Z,1011.13
2019-05-10T13:28:34.158Z,1011.17
2019-05-10T13:29:54.211Z,1011.29
2019-05-10T13:31:24.218Z,1011.26
2019-05-10T13:32:58.495Z,1011.31
2019-05-10T13:33:54.261Z,1011.22
2019-05-10T13:35:24.296Z,1011.21
2019-05-10T13:36:54.373Z,1011.23
2019-05-10T13:39:25.317Z,1011.17
2019-05-10T13:40:24.444Z,1011.17
2019-05-10T13:41:56.997Z,1011.2
2019-05-10T13:42:45.881Z,1011.29
2019-05-10T13:43:44.584Z,1011.24
2019-05-10T13:44:24.488Z,1011.29
2019-05-10T13:45:54.590Z,1011.25
2019-05-10T13:47:24.523Z,1011.26
2019-05-10T13:48:44.542Z,1011.26
2019-05-10T13:49:24.598Z,1011.22
2019-05-10T13:50:24.649Z,1011.21
2019-05-10T13:51:24.674Z,1011.2
2019-05-10T13:52:29.566Z,1011.16
2019-05-10T13:54:24.710Z,1011.14
2019-05-10T13:55:54.744Z,1011.18
2019-05-10T13:57:24.832Z,1011.15
2019-05-10T13:58:34.861Z,1011.17
2019-05-10T13:59:24.893Z,1011.23
2019-05-10T14:00:32.934Z,1011.18
2019-05-10T14:01:24.927Z,1011.22
2019-05-10T14:02:32.186Z,1011.26
2019-05-10T14:04:24.950Z,1011.23
2019-05-10T14:05:24.963Z,1011.25
2019-05-10T14:06:24.982Z,1011.19
2019-05-10T14:07:55.002Z,1011.14
2019-05-10T14:08:55.098Z,1011.17
2019-05-10T14:10:25.324Z,1011.13
2019-05-10T14:11:55.173Z,1011.12
2019-05-10T14:14:26.670Z,1011.16
2019-05-10T14:15:55.285Z,1011.13
2019-05-10T14:17:25.325Z,1011.09
2019-05-10T14:18:35.339Z,1011.05
2019-05-10T14:19:55.406Z,1011.14
2019-05-10T14:21:25.424Z,1011.12
2019-05-10T14:22:58.328Z,1011.08
2019-05-10T14:23:56.915Z,1011.11
2019-05-10T14:25:29.295Z,1011.07
2019-05-10T14:26:25.544Z,1011.07
2019-05-10T14:27:05.551Z,1011.04
2019-05-10T14:28:09.497Z,1011.11
2019-05-10T14:29:32.762Z,1011.09
2019-05-10T14:30:07.056Z,1011.12
2019-05-10T14:31:55.672Z,1011.18
2019-05-10T14:33:35.762Z,1011.1
2019-05-10T14:36:00.786Z,1011.2
2019-05-10T14:38:06.872Z,1011.24
2019-05-10T14:40:55.925Z,1011.13
2019-05-10T14:42:55.950Z,1011.19
2019-05-10T14:45:56.001Z,1011.22
2019-05-10T14:47:56.017Z,1011.16
2019-05-10T14:50:56.111Z,1011.28
2019-05-10T14:52:56.123Z,1011.31
2019-05-10T14:55:56.187Z,1011.32
2019-05-10T14:57:26.203Z,1011.31
2019-05-10T14:58:06.265Z,1011.28
2019-05-10T15:00:56.241Z,1011.22
2019-05-10T15:02:56.539Z,1011.28
2019-05-10T15:06:00.918Z,1011.2
2019-05-10T15:07:56.341Z,1011.29
2019-05-10T15:09:26.345Z,1011.35
2019-05-10T15:10:26.400Z,1011.28
2019-05-10T15:11:06.397Z,1011.26
2019-05-10T15:12:26.471Z,1011.26
2019-05-10T15:13:06.482Z,1011.36
2019-05-10T15:15:56.602Z,1011.31
2019-05-10T15:18:01.820Z,1011.42
2019-05-10T15:20:56.873Z,1011.35
2019-05-10T15:22:56.900Z,1011.22
2019-05-10T15:24:26.888Z,1011.28
2019-05-10T15:25:26.901Z,1011.24
2019-05-10T15:26:11.420Z,1011.35
2019-05-10T15:27:26.929Z,1011.26
2019-05-10T15:28:06.968Z,1011.28
2019-05-10T15:30:56.962Z,1011.33
2019-05-10T15:32:26.978Z,1011.26
2019-05-10T15:33:26.981Z,1011.36
2019-05-10T15:34:27.020Z,1011.34
2019-05-10T15:35:27.063Z,1011.34
2019-05-10T15:36:29.439Z,1011.36
2019-05-10T15:37:27.059Z,1011.39
2019-05-10T15:38:27.094Z,1011.36
2019-05-10T15:39:07.104Z,1011.36
2019-05-10T15:40:07.930Z,1011.43
2019-05-10T15:41:27.091Z,1011.34
2019-05-10T15:42:30.365Z,1011.42
2019-05-10T15:43:27.118Z,1011.35
2019-05-10T15:45:27.131Z,1011.39
2019-05-10T15:46:35.142Z,1011.36
2019-05-10T15:47:27.160Z,1011.34
2019-05-10T15:48:27.166Z,1011.39
2019-05-10T15:50:32.369Z,1011.31
2019-05-10T15:51:35.582Z,1011.36
2019-05-10T15:52:27.205Z,1011.43
2019-05-10T15:53:27.463Z,1011.37
2019-05-10T15:55:28.626Z,1011.4
2019-05-10T15:56:27.396Z,1011.4
2019-05-10T15:57:27.395Z,1011.44
2019-05-10T15:58:07.423Z,1011.4
2019-05-10T16:00:37.311Z,1011.36
2019-05-10T16:01:57.552Z,1011.4
2019-05-10T16:03:27.574Z,1011.34
2019-05-10T16:04:37.592Z,1011.34
2019-05-10T16:06:00.607Z,1011.36
2019-05-10T16:07:27.650Z,1011.33
2019-05-10T16:09:02.763Z,1011.37
2019-05-10T16:10:07.636Z,1011.32